Terminal Aerodrome Forecast
Issued by NWS Lake Charles, LA

Home | Current Version | Previous Version | Text Only | Print | Product List | Glossary On
Versions: 1 2 3 4 5 6 7 8 9 10 11 12 13 14 15
842
FTUS44 KLCH 180537
TAFARA
TAF
KARA 180537Z 1806/1906 17006KT P6SM SCT030 SCT250
     FM181000 20007KT P6SM BKN020
     FM181500 23015G21KT P6SM BKN025
     FM182100 26017G25KT P6SM VCSH BKN025 OVC250
     FM190000 28013G20KT P6SM VCSH SCT035 BKN060
     FM190300 34016G24KT P6SM SCT060 SCT250=

USA.gov is the U.S. government's official web portal to all federal, state and local government web resources and services.